createdAt,value
2023-03-06T06:13:50.950Z,18.00
2023-03-06T06:14:52.796Z,17.94
2023-03-06T06:15:53.575Z,17.94
2023-03-06T06:16:55.404Z,17.90
2023-03-06T06:17:57.207Z,17.96
2023-03-06T06:18:59.021Z,17.91
2023-03-06T06:19:59.849Z,17.91
2023-03-06T06:21:01.650Z,17.87
2023-03-06T06:22:03.445Z,17.87
2023-03-06T06:23:05.248Z,17.84
2023-03-06T06:24:06.018Z,17.82
2023-03-06T06:25:07.815Z,17.82
2023-03-06T06:26:09.613Z,17.78
2023-03-06T06:27:11.412Z,17.78
2023-03-06T06:28:12.155Z,17.79
2023-03-06T06:29:14.100Z,17.79
2023-03-06T06:30:15.892Z,17.82
2023-03-06T06:31:17.741Z,17.79
2023-03-06T06:32:19.600Z,17.79
2023-03-06T06:33:20.373Z,17.76
2023-03-06T06:34:22.187Z,17.78
2023-03-06T06:35:24.010Z,17.79
2023-03-06T06:36:24.275Z,17.73
2023-03-06T06:37:25.849Z,17.72
2023-03-06T06:38:26.588Z,17.75
2023-03-06T06:39:28.406Z,17.75
2023-03-06T06:40:30.204Z,17.76
2023-03-06T06:42:02.294Z,17.79
2023-03-06T06:42:38.882Z,17.79
2023-03-06T06:43:34.154Z,17.78
2023-03-06T06:44:36.004Z,17.73
2023-03-06T06:45:36.749Z,17.75
2023-03-06T06:47:38.678Z,17.75
2023-03-06T06:48:40.371Z,17.78
2023-03-06T06:49:42.273Z,17.76
2023-03-06T06:50:43.046Z,17.76
2023-03-06T06:51:44.850Z,17.78
2023-03-06T06:52:46.683Z,17.76
2023-03-06T06:53:48.493Z,17.73
2023-03-06T06:54:49.244Z,17.76
2023-03-06T06:55:51.042Z,17.75
2023-03-06T06:56:52.839Z,17.75
2023-03-06T06:57:53.583Z,17.75
2023-03-06T06:59:01.336Z,17.75
2023-03-06T06:59:57.566Z,17.76
2023-03-06T07:00:59.364Z,17.73
2023-03-06T07:02:01.170Z,17.73
2023-03-06T07:03:02.975Z,17.76
2023-03-06T07:04:03.746Z,17.72
2023-03-06T07:05:05.785Z,17.75
2023-03-06T07:06:05.548Z,17.75
2023-03-06T07:07:07.348Z,17.73
2023-03-06T07:08:09.145Z,17.78
2023-03-06T07:09:10.953Z,17.79
2023-03-06T07:10:12.769Z,17.75
2023-03-06T07:11:13.913Z,17.72
2023-03-06T07:12:14.650Z,17.76
2023-03-06T07:13:16.446Z,17.78
2023-03-06T07:14:17.209Z,17.76
2023-03-06T07:15:19.118Z,17.76
2023-03-06T07:16:20.999Z,17.81
2023-03-06T07:17:22.869Z,17.78
2023-03-06T07:18:24.943Z,17.81
2023-03-06T07:19:26.742Z,17.79
2023-03-06T07:20:28.558Z,17.79
2023-03-06T07:21:29.319Z,17.76
2023-03-06T07:22:41.439Z,17.75
2023-03-06T07:23:32.460Z,17.76
2023-03-06T07:24:33.202Z,17.76
2023-03-06T07:25:35.015Z,17.75
2023-03-06T07:26:36.815Z,17.73
2023-03-06T07:27:38.652Z,17.76
2023-03-06T07:28:51.628Z,17.73
2023-03-06T07:29:40.681Z,17.75
2023-03-06T07:30:42.523Z,17.75
2023-03-06T07:31:43.290Z,17.72
2023-03-06T07:32:45.162Z,17.76
2023-03-06T07:33:46.967Z,17.78
2023-03-06T07:34:48.760Z,17.79
2023-03-06T07:35:50.677Z,17.78
2023-03-06T07:36:52.604Z,17.78
2023-03-06T07:37:53.358Z,17.73
2023-03-06T07:38:55.147Z,17.76
2023-03-06T07:39:56.945Z,17.73
2023-03-06T07:40:58.760Z,17.79
2023-03-06T07:41:59.561Z,17.73
2023-03-06T07:43:16.850Z,17.75
2023-03-06T07:44:02.792Z,17.78
2023-03-06T07:45:03.532Z,17.78
2023-03-06T07:46:05.438Z,17.76
2023-03-06T07:47:07.260Z,17.76
2023-03-06T07:48:09.059Z,17.79
2023-03-06T07:49:10.864Z,17.76
2023-03-06T07:50:11.614Z,17.73
2023-03-06T07:51:13.439Z,17.75
2023-03-06T07:52:15.235Z,17.75
2023-03-06T07:53:17.035Z,17.78
2023-03-06T07:54:18.842Z,17.76
2023-03-06T07:55:19.604Z,17.73
2023-03-06T07:56:21.423Z,17.75
2023-03-06T07:57:23.213Z,17.75
2023-03-06T07:58:25.010Z,17.76
2023-03-06T07:59:26.819Z,17.72
2023-03-06T08:00:27.564Z,17.76
2023-03-06T08:01:29.413Z,17.76
2023-03-06T08:02:31.219Z,17.76
2023-03-06T08:03:33.065Z,17.78
2023-03-06T08:04:34.920Z,17.78
2023-03-06T08:05:35.678Z,17.78
2023-03-06T08:06:37.488Z,17.79
2023-03-06T08:07:39.294Z,17.82
2023-03-06T08:08:41.101Z,17.78
2023-03-06T08:09:42.910Z,17.78
2023-03-06T08:10:44.746Z,17.79
2023-03-06T08:11:45.511Z,17.78
2023-03-06T08:12:47.297Z,17.81
2023-03-06T08:13:49.127Z,17.79
2023-03-06T08:14:50.926Z,17.81
2023-03-06T08:15:51.674Z,17.81
2023-03-06T08:16:53.534Z,17.81
2023-03-06T08:17:55.333Z,17.79
2023-03-06T08:18:57.142Z,17.78
2023-03-06T08:19:58.945Z,17.76
2023-03-06T08:20:59.685Z,17.75
2023-03-06T08:22:01.502Z,17.76
2023-03-06T08:23:03.296Z,17.76
2023-03-06T08:24:06.703Z,17.78
2023-03-06T08:25:07.261Z,17.79
2023-03-06T08:26:09.103Z,17.79
2023-03-06T08:27:09.881Z,17.79
2023-03-06T08:28:11.683Z,17.76
2023-03-06T08:29:13.485Z,17.78
2023-03-06T08:30:15.312Z,17.76
2023-03-06T08:31:17.199Z,17.75
2023-03-06T08:32:18.070Z,17.75
2023-03-06T08:33:18.827Z,17.78
2023-03-06T08:34:19.174Z,17.76
2023-03-06T08:35:21.057Z,17.76
2023-03-06T08:36:22.945Z,17.76
2023-03-06T08:37:23.719Z,17.78
2023-03-06T08:38:25.501Z,17.78
2023-03-06T08:39:27.307Z,17.76
2023-03-06T08:40:29.321Z,17.76
2023-03-06T08:41:31.125Z,17.78
2023-03-06T08:42:32.946Z,17.79
2023-03-06T08:43:33.511Z,17.78
2023-03-06T08:44:35.030Z,17.78
2023-03-06T08:45:36.853Z,17.75
2023-03-06T08:46:37.627Z,17.76
2023-03-06T08:47:39.476Z,17.76
2023-03-06T08:48:41.271Z,17.76
2023-03-06T08:49:43.129Z,17.75
2023-03-06T08:50:44.941Z,17.73
2023-03-06T08:51:45.672Z,17.72
2023-03-06T08:52:47.501Z,17.76
2023-03-06T08:53:49.306Z,17.73
2023-03-06T08:54:51.099Z,17.72
2023-03-06T08:55:51.841Z,17.72
2023-03-06T08:56:53.650Z,17.71
2023-03-06T08:57:55.492Z,17.75
2023-03-06T08:58:57.309Z,17.76
2023-03-06T08:59:59.115Z,17.73
2023-03-06T09:00:59.970Z,17.73
2023-03-06T09:02:00.875Z,17.78
2023-03-06T09:03:01.147Z,17.78
2023-03-06T09:04:03.048Z,17.79
2023-03-06T09:05:04.859Z,17.84
2023-03-06T09:06:05.594Z,17.84
2023-03-06T09:07:07.383Z,17.86
2023-03-06T09:08:09.199Z,17.84
2023-03-06T09:09:11.004Z,17.81
2023-03-06T09:10:11.741Z,17.84
2023-03-06T09:11:13.532Z,17.87
2023-03-06T09:12:15.332Z,17.87
2023-03-06T09:13:17.166Z,17.87
2023-03-06T09:14:17.924Z,17.86
2023-03-06T09:15:19.718Z,17.86
2023-03-06T09:16:21.540Z,17.87
2023-03-06T09:17:23.511Z,17.86
2023-03-06T09:18:25.434Z,17.90
2023-03-06T09:19:27.514Z,17.87
2023-03-06T09:20:29.296Z,17.90
2023-03-06T09:21:30.040Z,17.90
2023-03-06T09:22:31.668Z,17.93
2023-03-06T09:23:33.491Z,17.90
2023-03-06T09:24:35.281Z,17.88
2023-03-06T09:25:36.037Z,17.90
2023-03-06T09:26:46.273Z,17.91
2023-03-06T09:27:39.407Z,17.90
2023-03-06T09:28:41.225Z,17.91
2023-03-06T09:29:41.969Z,17.94
2023-03-06T09:30:43.822Z,17.93
2023-03-06T09:31:45.653Z,17.93
2023-03-06T09:32:47.456Z,17.91
2023-03-06T09:33:49.347Z,17.88
2023-03-06T09:34:50.097Z,17.90
2023-03-06T09:35:51.969Z,17.91
2023-03-06T09:36:57.197Z,17.93
2023-03-06T09:37:55.193Z,17.88
2023-03-06T09:38:55.959Z,17.88
2023-03-06T09:39:57.822Z,17.91
2023-03-06T09:40:59.637Z,17.93
2023-03-06T09:42:01.440Z,17.94
2023-03-06T09:43:03.244Z,17.98
2023-03-06T09:44:04.019Z,18.01
2023-03-06T09:45:05.879Z,18.00
2023-03-06T09:46:07.731Z,17.98
2023-03-06T09:47:09.584Z,17.98
2023-03-06T09:48:11.381Z,18.01
2023-03-06T09:49:13.253Z,18.04
2023-03-06T09:50:14.025Z,18.06
2023-03-06T09:51:15.825Z,18.04
2023-03-06T09:52:17.292Z,18.08
2023-03-06T09:53:19.089Z,18.08
2023-03-06T09:54:20.900Z,18.08
2023-03-06T09:55:21.656Z,18.09
2023-03-06T09:56:23.448Z,18.09
2023-03-06T09:57:25.241Z,18.13
2023-03-06T09:58:27.048Z,18.13
2023-03-06T09:59:28.861Z,18.12
2023-03-06T10:00:29.634Z,18.16
2023-03-06T10:01:31.469Z,18.13
2023-03-06T10:02:33.460Z,18.13
2023-03-06T10:03:35.278Z,18.15
2023-03-06T10:04:37.289Z,18.18
2023-03-06T10:05:39.112Z,18.18
2023-03-06T10:06:40.916Z,18.15
2023-03-06T10:07:41.653Z,18.15
2023-03-06T10:08:43.448Z,18.15
2023-03-06T10:09:45.266Z,18.18
2023-03-06T10:10:47.278Z,18.19
2023-03-06T10:11:49.084Z,18.21
2023-03-06T10:12:51.084Z,18.19
2023-03-06T10:13:51.513Z,18.24
2023-03-06T10:14:53.016Z,18.27
2023-03-06T10:15:54.909Z,18.28
2023-03-06T10:16:55.668Z,18.37
2023-03-06T10:17:57.465Z,18.42
2023-03-06T10:18:59.270Z,18.47
2023-03-06T10:20:01.165Z,18.53
2023-03-06T10:21:18.496Z,18.60
2023-03-06T10:22:03.060Z,18.64
2023-03-06T10:23:05.494Z,18.64
2023-03-06T10:24:05.258Z,18.62
2023-03-06T10:25:06.892Z,18.57
2023-03-06T10:26:08.712Z,18.54
2023-03-06T10:27:09.559Z,18.53
2023-03-06T10:28:10.329Z,18.57
2023-03-06T10:29:10.678Z,18.61
2023-03-06T10:30:12.523Z,18.62
2023-03-06T10:31:14.393Z,18.69
2023-03-06T10:32:16.245Z,18.68
2023-03-06T10:33:17.005Z,18.65
2023-03-06T10:34:18.789Z,18.67
2023-03-06T10:35:20.668Z,18.65
2023-03-06T10:36:22.526Z,18.65
2023-03-06T10:37:24.338Z,18.65
2023-03-06T10:38:25.091Z,18.65
2023-03-06T10:39:26.900Z,18.77
2023-03-06T10:40:28.745Z,18.86
2023-03-06T10:41:30.564Z,18.84
2023-03-06T10:42:32.372Z,18.87
2023-03-06T10:43:36.195Z,18.86
2023-03-06T10:44:34.028Z,18.83
2023-03-06T10:45:48.407Z,18.89
2023-03-06T10:46:34.910Z,18.98
2023-03-06T10:47:35.709Z,19.02
2023-03-06T10:48:36.009Z,19.14
2023-03-06T10:49:37.925Z,19.20
2023-03-06T10:50:39.789Z,19.22
2023-03-06T10:51:40.524Z,19.22
2023-03-06T10:52:42.326Z,19.20
2023-03-06T10:53:44.124Z,19.14
2023-03-06T10:54:45.923Z,19.08
2023-03-06T10:55:46.103Z,19.00
2023-03-06T10:56:47.848Z,18.94
2023-03-06T10:57:49.658Z,18.84
2023-03-06T10:58:50.400Z,18.83
2023-03-06T10:59:52.191Z,18.86
2023-03-06T11:00:54.010Z,18.82
2023-03-06T11:01:55.940Z,18.80
2023-03-06T11:02:57.774Z,18.83
2023-03-06T11:03:58.514Z,18.82
2023-03-06T11:05:00.331Z,18.86
2023-03-06T11:06:02.166Z,18.86
2023-03-06T11:07:03.961Z,18.87
2023-03-06T11:08:05.764Z,18.92
2023-03-06T11:09:07.560Z,18.90
2023-03-06T11:10:09.363Z,18.90
2023-03-06T11:11:10.116Z,18.93
2023-03-06T11:12:11.921Z,18.93
2023-03-06T11:13:13.720Z,18.97
2023-03-06T11:14:15.524Z,18.94
2023-03-06T11:15:17.328Z,18.97
2023-03-06T11:16:18.170Z,19.00
2023-03-06T11:17:18.949Z,19.04
2023-03-06T11:18:19.277Z,19.04
2023-03-06T11:19:21.119Z,19.04
2023-03-06T11:20:22.973Z,19.07
2023-03-06T11:21:24.878Z,19.08
2023-03-06T11:22:25.623Z,19.07
2023-03-06T11:23:27.421Z,19.05
2023-03-06T11:24:29.222Z,18.98
2023-03-06T11:25:31.024Z,18.94
2023-03-06T11:26:32.836Z,18.89
2023-03-06T11:27:34.806Z,18.92
2023-03-06T11:28:36.798Z,18.92
2023-03-06T11:29:39.099Z,18.93
2023-03-06T11:30:38.847Z,18.92
2023-03-06T11:31:40.681Z,18.92
2023-03-06T11:32:42.558Z,18.94
2023-03-06T11:33:44.386Z,18.98
2023-03-06T11:34:47.671Z,19.05
2023-03-06T11:35:48.310Z,19.09
2023-03-06T11:36:50.248Z,19.09
2023-03-06T11:37:50.979Z,19.08
2023-03-06T11:38:52.813Z,19.12
2023-03-06T11:39:54.047Z,19.17
2023-03-06T11:40:55.859Z,19.30
2023-03-06T11:41:56.620Z,19.34
2023-03-06T11:42:58.406Z,19.41
2023-03-06T11:44:00.208Z,19.49
2023-03-06T11:45:03.151Z,19.49
2023-03-06T11:46:02.171Z,19.48
2023-03-06T11:47:03.991Z,19.49
2023-03-06T11:48:05.782Z,19.57
2023-03-06T11:49:07.582Z,19.47
2023-03-06T11:50:09.375Z,19.38
2023-03-06T11:51:10.115Z,19.34
2023-03-06T11:52:11.973Z,19.26
2023-03-06T11:53:13.760Z,19.20
2023-03-06T11:54:15.562Z,19.19
2023-03-06T11:55:17.367Z,19.20
2023-03-06T11:56:19.169Z,19.20
2023-03-06T11:57:19.921Z,19.22
2023-03-06T11:58:21.726Z,19.23
2023-03-06T11:59:23.526Z,19.35
2023-03-06T12:00:25.325Z,19.44
2023-03-06T12:01:27.140Z,19.45
2023-03-06T12:02:27.997Z,19.49
2023-03-06T12:03:29.828Z,19.45
2023-03-06T12:04:31.648Z,19.45
2023-03-06T12:05:33.530Z,19.48
2023-03-06T12:06:35.350Z,19.53
2023-03-06T12:07:37.203Z,19.49
2023-03-06T12:08:39.014Z,19.53
2023-03-06T12:09:39.765Z,19.57
2023-03-06T12:10:41.569Z,19.59
2023-03-06T12:11:43.371Z,19.60
2023-03-06T12:12:45.206Z,19.62
2023-03-06T12:13:47.015Z,19.60
2023-03-06T12:14:47.758Z,19.64
2023-03-06T12:15:49.546Z,19.59
2023-03-06T12:16:51.380Z,19.45
2023-03-06T12:17:53.188Z,19.39
2023-03-06T12:18:55.006Z,19.37
2023-03-06T12:19:56.808Z,19.34
2023-03-06T12:20:57.553Z,19.35
2023-03-06T12:21:59.357Z,19.41
2023-03-06T12:23:14.415Z,19.52
2023-03-06T12:24:02.835Z,19.59
2023-03-06T12:25:04.631Z,19.62
2023-03-06T12:26:06.430Z,19.59
2023-03-06T12:27:07.175Z,19.53
2023-03-06T12:28:08.155Z,19.47
2023-03-06T12:29:08.481Z,19.37
2023-03-06T12:30:10.283Z,19.27
2023-03-06T12:31:12.085Z,19.20
2023-03-06T12:32:14.028Z,19.11
2023-03-06T12:33:15.927Z,19.07
2023-03-06T12:34:16.679Z,19.01
2023-03-06T12:35:18.505Z,18.97
2023-03-06T12:36:20.298Z,18.94
2023-03-06T12:37:22.114Z,18.90
2023-03-06T12:38:23.944Z,18.90
2023-03-06T12:39:25.759Z,18.86
2023-03-06T12:40:26.497Z,18.83
2023-03-06T12:41:27.412Z,18.82
2023-03-06T12:42:27.734Z,18.79
2023-03-06T12:43:29.580Z,18.77
2023-03-06T12:44:31.373Z,18.75
2023-03-06T12:45:32.111Z,18.74
2023-03-06T12:46:33.939Z,18.72
2023-03-06T12:47:35.726Z,18.69
2023-03-06T12:48:37.542Z,18.65
2023-03-06T12:49:39.339Z,18.68
2023-03-06T12:50:40.099Z,18.65
2023-03-06T12:51:41.899Z,18.67
2023-03-06T12:52:43.699Z,18.64
2023-03-06T12:53:45.552Z,18.62
2023-03-06T12:54:47.331Z,18.61
2023-03-06T12:55:48.069Z,18.56
2023-03-06T12:56:49.593Z,18.53
2023-03-06T12:57:51.423Z,18.50
2023-03-06T12:58:52.179Z,18.50
2023-03-06T12:59:53.983Z,18.49
2023-03-06T13:01:03.605Z,18.46
2023-03-06T13:01:57.365Z,18.46
2023-03-06T13:02:58.113Z,18.46
2023-03-06T13:03:59.931Z,18.45
2023-03-06T13:05:01.726Z,18.46
2023-03-06T13:06:03.534Z,18.45
2023-03-06T13:07:05.324Z,18.45
2023-03-06T13:08:06.085Z,18.46
2023-03-06T13:09:07.968Z,18.46
2023-03-06T13:10:09.775Z,18.46
2023-03-06T13:11:11.577Z,18.46
2023-03-06T13:12:13.431Z,18.45
2023-03-06T13:13:14.197Z,18.45
2023-03-06T13:14:16.006Z,18.46
2023-03-06T13:15:17.795Z,18.49
2023-03-06T13:16:19.664Z,18.49
2023-03-06T13:17:21.522Z,18.52
2023-03-06T13:18:23.389Z,18.53
2023-03-06T13:19:24.164Z,18.52
2023-03-06T13:20:25.943Z,18.54
2023-03-06T13:21:27.745Z,18.61
2023-03-06T13:22:29.557Z,18.60
2023-03-06T13:23:31.342Z,18.64
2023-03-06T13:24:32.141Z,18.65
2023-03-06T13:25:33.954Z,18.68
2023-03-06T13:26:35.773Z,18.69
2023-03-06T13:27:37.576Z,18.71
2023-03-06T13:28:39.376Z,18.75
2023-03-06T13:29:41.207Z,18.83
2023-03-06T13:30:42.004Z,18.89
2023-03-06T13:31:43.855Z,18.92
2023-03-06T13:32:45.746Z,19.00
2023-03-06T13:33:47.534Z,19.08
2023-03-06T13:34:49.355Z,19.14
2023-03-06T13:35:51.194Z,19.19
2023-03-06T13:36:51.941Z,19.27
2023-03-06T13:37:53.748Z,19.29
2023-03-06T13:38:55.569Z,19.30
2023-03-06T13:39:57.414Z,19.29
2023-03-06T13:40:59.205Z,19.32
2023-03-06T13:41:59.958Z,19.37
2023-03-06T13:43:01.766Z,19.42
2023-03-06T13:44:03.562Z,19.45
2023-03-06T13:45:05.377Z,19.45
2023-03-06T13:46:07.188Z,19.47
2023-03-06T13:47:09.021Z,19.45
2023-03-06T13:48:41.243Z,19.41
2023-03-06T13:49:11.400Z,19.41
2023-03-06T13:50:13.212Z,19.39
2023-03-06T13:51:15.011Z,19.35
2023-03-06T13:52:15.757Z,19.32
2023-03-06T13:53:17.556Z,19.27
2023-03-06T13:54:19.429Z,19.29
2023-03-06T13:55:21.298Z,19.22
2023-03-06T13:56:23.105Z,19.12
2023-03-06T13:57:24.919Z,19.04
2023-03-06T13:58:25.673Z,19.00
2023-03-06T13:59:27.141Z,18.92
2023-03-06T14:00:28.963Z,18.89
2023-03-06T14:01:29.820Z,18.87
2023-03-06T14:02:31.667Z,18.87
2023-03-06T14:03:33.500Z,18.84
2023-03-06T14:04:35.305Z,18.86
2023-03-06T14:05:37.120Z,18.87
2023-03-06T14:06:38.910Z,18.87
2023-03-06T14:07:39.646Z,18.86
2023-03-06T14:08:41.435Z,18.86
2023-03-06T14:09:43.226Z,18.86
2023-03-06T14:10:45.137Z,18.86
2023-03-06T14:11:46.941Z,18.92
2023-03-06T14:12:48.735Z,18.97
2023-03-06T14:13:49.483Z,18.98
2023-03-06T14:14:51.287Z,19.08
2023-03-06T14:15:53.209Z,19.44
2023-03-06T14:16:55.096Z,19.74
2023-03-06T14:17:56.891Z,19.79
2023-03-06T14:18:58.690Z,20.09
2023-03-06T14:19:59.499Z,20.59
2023-03-06T14:21:01.346Z,21.04
2023-03-06T14:22:03.153Z,21.31
2023-03-06T14:23:04.940Z,21.41
2023-03-06T14:24:06.754Z,21.46
2023-03-06T14:25:08.556Z,21.46
2023-03-06T14:26:09.367Z,21.58
2023-03-06T14:27:10.113Z,21.64
2023-03-06T14:28:14.301Z,21.42
2023-03-06T14:29:11.984Z,21.46
2023-03-06T14:30:13.780Z,21.48
2023-03-06T14:31:14.600Z,21.34
2023-03-06T14:32:15.442Z,21.42
2023-03-06T14:33:15.662Z,21.51
2023-03-06T14:34:17.446Z,21.14
2023-03-06T14:35:19.267Z,20.81
2023-03-06T14:36:21.124Z,20.71
2023-03-06T14:37:22.931Z,20.46
2023-03-06T14:38:23.665Z,20.25
2023-03-06T14:39:25.449Z,20.10
2023-03-06T14:40:27.249Z,19.95
2023-03-06T14:41:29.097Z,19.82
2023-03-06T14:42:30.886Z,19.71
2023-03-06T14:43:32.684Z,19.62
2023-03-06T14:44:34.482Z,19.59
2023-03-06T14:45:35.163Z,19.55
2023-03-06T14:46:36.791Z,19.57
2023-03-06T14:47:36.695Z,19.69
2023-03-06T14:48:38.177Z,19.80
2023-03-06T14:49:39.980Z,19.79
2023-03-06T14:50:42.049Z,19.74
2023-03-06T14:51:41.828Z,19.74
2023-03-06T14:52:43.829Z,19.74
2023-03-06T14:53:45.717Z,19.66
2023-03-06T14:54:47.532Z,19.66
2023-03-06T14:55:49.436Z,19.78
2023-03-06T14:56:50.237Z,19.82
2023-03-06T14:57:50.986Z,19.88
2023-03-06T14:58:51.352Z,19.88
2023-03-06T14:59:53.167Z,19.80
2023-03-06T15:00:55.078Z,19.72
2023-03-06T15:01:56.982Z,19.63
2023-03-06T15:02:58.843Z,19.60
2023-03-06T15:03:59.610Z,19.56
2023-03-06T15:05:01.427Z,19.56
2023-03-06T15:06:03.236Z,19.55
2023-03-06T15:07:05.094Z,19.56
2023-03-06T15:08:06.895Z,19.53
2023-03-06T15:09:08.692Z,19.48
2023-03-06T15:10:10.538Z,19.49
2023-03-06T15:11:11.293Z,19.55
2023-03-06T15:12:13.147Z,19.69
2023-03-06T15:13:14.962Z,19.64
2023-03-06T15:14:16.764Z,19.56
2023-03-06T15:15:18.559Z,19.49
2023-03-06T15:16:20.471Z,19.42
2023-03-06T15:17:22.323Z,19.39
2023-03-06T15:18:23.047Z,19.34
2023-03-06T15:19:24.832Z,19.34
2023-03-06T15:20:26.634Z,19.26
2023-03-06T15:21:28.419Z,19.23
2023-03-06T15:22:30.272Z,19.19
2023-03-06T15:23:31.025Z,19.16
2023-03-06T15:24:32.825Z,19.09
2023-03-06T15:25:34.692Z,19.05
2023-03-06T15:26:36.494Z,19.01
2023-03-06T15:27:38.362Z,19.00
2023-03-06T15:28:40.168Z,18.94
2023-03-06T15:29:40.907Z,18.93
2023-03-06T15:30:42.703Z,18.92
2023-03-06T15:31:44.581Z,18.93
2023-03-06T15:32:46.424Z,18.94
2023-03-06T15:33:48.460Z,18.97
2023-03-06T15:34:50.252Z,18.97
2023-03-06T15:35:51.012Z,18.97
2023-03-06T15:36:52.852Z,18.92
2023-03-06T15:37:54.659Z,18.90
2023-03-06T15:38:56.503Z,18.93
2023-03-06T15:39:58.301Z,18.89
2023-03-06T15:40:59.085Z,18.89
2023-03-06T15:42:00.890Z,18.87
2023-03-06T15:43:02.735Z,18.89
2023-03-06T15:44:04.526Z,18.83
2023-03-06T15:45:06.326Z,18.83
2023-03-06T15:46:07.138Z,18.82
2023-03-06T15:47:09.482Z,18.84
2023-03-06T15:48:10.347Z,18.83
2023-03-06T15:49:12.145Z,18.83
2023-03-06T15:50:12.883Z,18.86
2023-03-06T15:51:14.746Z,18.90
2023-03-06T15:52:16.561Z,18.90
2023-03-06T15:53:18.382Z,18.89
2023-03-06T15:54:20.181Z,18.89
2023-03-06T15:55:20.924Z,18.90
2023-03-06T15:56:22.716Z,18.87
2023-03-06T15:57:24.517Z,18.86
2023-03-06T15:58:26.357Z,18.86
2023-03-06T15:59:27.098Z,18.82
2023-03-06T16:00:28.883Z,18.82
2023-03-06T16:01:30.784Z,18.79
2023-03-06T16:02:32.620Z,18.80
2023-03-06T16:03:34.446Z,18.77
2023-03-06T16:04:36.309Z,18.75
2023-03-06T16:05:37.100Z,18.75
2023-03-06T16:06:38.902Z,18.74
2023-03-06T16:07:40.726Z,18.75
2023-03-06T16:08:42.537Z,18.74
2023-03-06T16:09:43.295Z,18.72
2023-03-06T16:10:45.100Z,18.75
2023-03-06T16:11:46.918Z,18.77
2023-03-06T16:12:48.717Z,18.77
2023-03-06T16:13:50.548Z,18.74
2023-03-06T16:14:52.384Z,18.75
2023-03-06T16:15:53.214Z,18.75
2023-03-06T16:16:55.126Z,18.77
2023-03-06T16:17:56.979Z,18.75
2023-03-06T16:18:58.807Z,18.77
2023-03-06T16:20:00.627Z,18.77
2023-03-06T16:21:02.429Z,18.75
2023-03-06T16:22:03.197Z,18.72
2023-03-06T16:23:04.991Z,18.72
2023-03-06T16:24:06.819Z,18.72
2023-03-06T16:25:08.600Z,18.72
2023-03-06T16:26:09.345Z,18.67
2023-03-06T16:27:11.139Z,18.65
2023-03-06T16:28:12.927Z,18.65
2023-03-06T16:29:14.786Z,18.64
2023-03-06T16:30:16.603Z,18.65
2023-03-06T16:31:18.401Z,18.64
2023-03-06T16:32:19.257Z,18.62
2023-03-06T16:33:21.076Z,18.61
2023-03-06T16:34:22.892Z,18.62
2023-03-06T16:35:24.745Z,18.64
2023-03-06T16:36:26.621Z,18.61
2023-03-06T16:37:28.451Z,18.62
2023-03-06T16:38:29.195Z,18.61
2023-03-06T16:39:31.010Z,18.54
2023-03-06T16:40:32.801Z,18.52
2023-03-06T16:41:34.598Z,18.52
2023-03-06T16:42:36.419Z,18.53
2023-03-06T16:43:37.165Z,18.53
2023-03-06T16:44:39.004Z,18.50
2023-03-06T16:45:40.788Z,18.49
2023-03-06T16:46:42.646Z,18.49
2023-03-06T16:47:44.493Z,18.47
2023-03-06T16:48:45.242Z,18.50
2023-03-06T16:49:47.132Z,18.50
2023-03-06T16:50:48.941Z,18.49
2023-03-06T16:51:50.734Z,18.47
2023-03-06T16:52:52.535Z,18.47
2023-03-06T16:53:53.290Z,18.45
2023-03-06T16:54:55.088Z,18.45
2023-03-06T16:55:56.897Z,18.46
2023-03-06T16:56:58.699Z,18.42
2023-03-06T16:57:59.436Z,18.39
2023-03-06T16:59:01.250Z,18.39
2023-03-06T17:00:03.109Z,18.39
2023-03-06T17:01:04.929Z,18.38
2023-03-06T17:02:06.737Z,18.35
2023-03-06T17:03:08.545Z,18.34
2023-03-06T17:04:09.301Z,18.35
2023-03-06T17:05:10.786Z,18.35
2023-03-06T17:06:12.574Z,18.31
2023-03-06T17:07:13.315Z,18.31
2023-03-06T17:08:15.133Z,18.34
2023-03-06T17:09:16.935Z,18.31
2023-03-06T17:10:18.778Z,18.31
2023-03-06T17:11:20.595Z,18.34
2023-03-06T17:12:21.346Z,18.35
2023-03-06T17:13:23.136Z,18.30
2023-03-06T17:14:24.497Z,18.31
2023-03-06T17:15:25.300Z,18.34
2023-03-06T17:16:27.086Z,18.30
2023-03-06T17:17:28.885Z,18.31
2023-03-06T17:18:30.696Z,18.28
2023-03-06T17:19:32.483Z,18.28
2023-03-06T17:20:33.288Z,18.28
2023-03-06T17:21:35.088Z,18.30
2023-03-06T17:22:37.029Z,18.30
2023-03-06T17:23:38.823Z,18.30
2023-03-06T17:24:40.631Z,18.28
2023-03-06T17:25:42.447Z,18.27
2023-03-06T17:26:43.188Z,18.27
2023-03-06T17:27:44.988Z,18.26
2023-03-06T17:28:46.794Z,18.23
2023-03-06T17:29:48.588Z,18.24
2023-03-06T17:30:50.515Z,18.27
2023-03-06T17:31:52.343Z,18.28
2023-03-06T17:32:53.076Z,18.28
2023-03-06T17:33:54.873Z,18.27
2023-03-06T17:34:56.678Z,18.28
2023-03-06T17:35:58.513Z,18.27
2023-03-06T17:37:00.431Z,18.28
2023-03-06T17:38:02.281Z,18.26
2023-03-06T17:39:03.024Z,18.27
2023-03-06T17:40:04.813Z,18.28
2023-03-06T17:41:06.665Z,18.27
2023-03-06T17:42:08.468Z,18.26
2023-03-06T17:43:10.274Z,18.23
2023-03-06T17:44:11.023Z,18.21
2023-03-06T17:45:12.825Z,18.23
2023-03-06T17:46:14.707Z,18.23
2023-03-06T17:47:16.515Z,18.23
2023-03-06T17:48:18.320Z,18.19
2023-03-06T17:49:20.117Z,18.26
2023-03-06T17:50:20.863Z,18.21
2023-03-06T17:51:22.363Z,18.23
2023-03-06T17:52:24.168Z,18.21
2023-03-06T17:53:24.914Z,18.18
2023-03-06T17:54:26.718Z,18.21
2023-03-06T17:55:28.519Z,18.19
2023-03-06T17:56:30.334Z,18.18
2023-03-06T17:57:32.155Z,18.18
2023-03-06T17:58:32.903Z,18.19
2023-03-06T17:59:34.691Z,18.19
2023-03-06T18:00:36.544Z,18.16
2023-03-06T18:01:38.465Z,18.13
2023-03-06T18:02:40.303Z,18.13
2023-03-06T18:03:42.102Z,18.15
2023-03-06T18:04:42.952Z,18.13
2023-03-06T18:05:44.756Z,18.16
2023-03-06T18:06:46.578Z,18.13
2023-03-06T18:07:48.366Z,18.13
2023-03-06T18:08:52.748Z,18.13
2023-03-06T18:09:50.572Z,18.15
2023-03-06T18:10:52.180Z,18.11
2023-03-06T18:11:54.041Z,18.09
2023-03-06T18:12:55.839Z,18.08
2023-03-06T18:13:56.540Z,18.11
2023-03-06T18:14:58.332Z,18.11
2023-03-06T18:16:00.187Z,18.11
2023-03-06T18:17:02.062Z,18.13
2023-03-06T18:18:03.873Z,18.12
2023-03-06T18:19:05.692Z,18.12
2023-03-06T18:20:06.439Z,18.11
2023-03-06T18:21:08.228Z,18.09
2023-03-06T18:22:10.056Z,18.11
2023-03-06T18:23:11.859Z,18.11
2023-03-06T18:24:13.659Z,18.11
2023-03-06T18:25:14.400Z,18.11
2023-03-06T18:26:16.198Z,18.05
2023-03-06T18:27:18.022Z,18.01
2023-03-06T18:28:19.821Z,18.05
2023-03-06T18:29:20.553Z,18.05
2023-03-06T18:30:22.340Z,18.05
2023-03-06T18:31:24.159Z,18.05
2023-03-06T18:32:26.071Z,18.05
2023-03-06T18:33:27.923Z,18.06
2023-03-06T18:34:29.719Z,18.04
2023-03-06T18:35:30.570Z,18.05
2023-03-06T18:36:31.379Z,18.04
2023-03-06T18:37:31.734Z,18.01
2023-03-06T18:38:33.596Z,18.00
2023-03-06T18:39:35.383Z,18.04
2023-03-06T18:40:35.590Z,18.01
2023-03-06T18:41:37.454Z,17.98
2023-03-06T18:42:39.267Z,17.97
2023-03-06T18:43:40.036Z,17.97
2023-03-06T18:44:41.869Z,17.98
2023-03-06T18:45:43.716Z,18.04
2023-03-06T18:46:45.738Z,18.05
2023-03-06T18:47:47.570Z,18.01
2023-03-06T18:48:49.375Z,17.98
2023-03-06T18:49:50.139Z,18.00
2023-03-06T18:50:51.929Z,17.97
2023-03-06T18:51:53.716Z,18.00
2023-03-06T18:52:55.532Z,18.00
2023-03-06T18:53:57.333Z,17.98
2023-03-06T18:54:58.085Z,17.98
2023-03-06T18:55:59.875Z,18.01
2023-03-06T18:57:01.685Z,18.01
2023-03-06T18:58:03.507Z,18.01
2023-03-06T18:59:05.310Z,18.01
2023-03-06T19:00:06.041Z,18.01
2023-03-06T19:01:07.884Z,18.01
2023-03-06T19:02:09.742Z,18.04
2023-03-06T19:03:11.576Z,18.01
2023-03-06T19:04:13.521Z,18.05
2023-03-06T19:05:15.344Z,18.00
2023-03-06T19:06:16.108Z,18.04
2023-03-06T19:07:17.921Z,17.98
2023-03-06T19:08:19.735Z,17.97
2023-03-06T19:09:21.533Z,18.00
2023-03-06T19:10:23.351Z,17.97
2023-03-06T19:11:24.082Z,18.00
2023-03-06T19:12:25.879Z,18.05
2023-03-06T19:13:27.707Z,18.04
2023-03-06T19:14:29.497Z,18.01
2023-03-06T19:15:31.289Z,18.01
2023-03-06T19:16:32.102Z,18.05
2023-03-06T19:17:32.953Z,18.00
2023-03-06T19:18:33.270Z,18.04
2023-03-06T19:19:35.051Z,18.05
2023-03-06T19:20:36.856Z,18.06
2023-03-06T19:21:37.636Z,18.08
2023-03-06T19:22:39.439Z,18.08
2023-03-06T19:23:41.261Z,18.04
2023-03-06T19:24:43.053Z,18.01
2023-03-06T19:25:44.851Z,18.04
2023-03-06T19:26:45.589Z,18.04